Time;durP1;ratioP1;P1;durP2;ratioP2;P2;SDS_P1;SDS_P2;PMS_P1;PMS_P2;Temp;Humidity;BMP_temperature;BMP_pressure;BME280_temperature;BME280_humidity;BME280_pressure;Samples;Min_cycle;Max_cycle;Signal;HPM_P1;HPM_P2
2021/08/23 00:00:47;;;;;;;5.70;5.20;;;17.60;99.90;;;;;;5032831;28;20155;-69
2021/08/23 00:03:12;;;;;;;8.77;7.00;;;17.60;99.90;;;;;;5032920;28;20185;-69
2021/08/23 00:05:38;;;;;;;7.37;6.67;;;17.60;99.90;;;;;;5032999;28;20161;-69
2021/08/23 00:08:05;;;;;;;6.63;5.93;;;17.50;99.90;;;;;;5032708;28;20210;-70
2021/08/23 00:10:31;;;;;;;7.93;6.80;;;17.50;99.90;;;;;;5032824;28;20154;-69
2021/08/23 00:12:56;;;;;;;6.90;6.23;;;17.50;99.90;;;;;;5033826;28;20884;-69
2021/08/23 00:15:22;;;;;;;8.37;7.50;;;17.40;99.90;;;;;;5032591;28;20167;-69
2021/08/23 00:17:47;;;;;;;7.97;7.17;;;17.40;99.90;;;;;;5032426;28;20182;-69
2021/08/23 00:20:16;;;;;;;9.60;8.60;;;17.40;99.90;;;;;;5032780;28;20168;-69
2021/08/23 00:22:58;;;;;;;11.70;9.57;;;17.40;99.90;;;;;;5032572;28;20186;-69
2021/08/23 00:25:24;;;;;;;9.10;8.20;;;17.30;99.90;;;;;;5032635;28;20478;-69
2021/08/23 00:27:49;;;;;;;9.00;8.10;;;17.30;99.90;;;;;;5032539;28;20473;-69
2021/08/23 00:30:16;;;;;;;10.43;8.43;;;17.30;99.90;;;;;;5033660;28;20661;-70
2021/08/23 00:32:42;;;;;;;9.53;8.53;;;17.30;99.90;;;;;;5032739;28;20169;-69
2021/08/23 00:35:09;;;;;;;9.37;8.47;;;17.40;99.90;;;;;;5032650;28;20906;-70
2021/08/23 00:37:37;;;;;;;10.83;8.73;;;17.40;99.90;;;;;;5032327;28;20820;-70
2021/08/23 00:40:03;;;;;;;9.67;8.70;;;17.40;99.90;;;;;;5032394;28;20911;-69
2021/08/23 00:42:29;;;;;;;11.20;8.10;;;17.40;99.90;;;;;;5032146;28;20484;-69
2021/08/23 00:44:55;;;;;;;10.10;8.73;;;17.40;99.90;;;;;;5032310;28;20850;-69
2021/08/23 00:47:20;;;;;;;9.77;8.70;;;17.50;99.90;;;;;;5033718;28;20178;-69
2021/08/23 00:49:46;;;;;;;9.87;8.07;;;17.50;99.90;;;;;;5032754;28;20159;-69
2021/08/23 00:52:11;;;;;;;10.57;7.70;;;17.50;99.90;;;;;;5032294;28;20162;-69
2021/08/23 00:54:37;;;;;;;9.50;7.57;;;17.50;99.90;;;;;;5032511;28;20249;-69
2021/08/23 00:57:04;;;;;;;9.30;7.40;;;17.50;99.90;;;;;;5032252;28;20162;-69
2021/08/23 00:59:34;;;;;;;12.17;9.30;;;17.50;99.90;;;;;;5032232;28;20426;-69
2021/08/23 01:02:10;;;;;;;9.80;8.70;;;17.40;99.90;;;;;;5032199;28;20437;-69
2021/08/23 01:07:18;;;;;;;10.03;8.27;;;17.40;99.90;;;;;;5069798;28;20512;-69
2021/08/23 01:10:06;;;;;;;11.53;9.00;;;17.40;99.90;;;;;;5069712;28;20415;-69
2021/08/23 01:12:31;;;;;;;11.53;8.50;;;17.40;99.90;;;;;;5069544;28;20411;-69
2021/08/23 01:14:58;;;;;;;13.10;11.07;;;17.40;99.90;;;;;;5069559;28;20864;-69
2021/08/23 01:17:24;;;;;;;10.97;9.30;;;17.40;99.90;;;;;;5069373;28;20241;-69
2021/08/23 01:19:54;;;;;;;11.70;9.87;;;17.40;99.90;;;;;;5069601;28;20395;-70
2021/08/23 01:22:20;;;;;;;15.00;10.20;;;17.40;99.90;;;;;;5067978;28;20189;-70
2021/08/23 01:24:52;;;;;;;11.40;10.20;;;17.40;99.90;;;;;;5069493;28;20403;-70
2021/08/23 01:27:18;;;;;;;13.67;11.03;;;17.40;99.90;;;;;;5069355;28;20820;-70
2021/08/23 01:32:36;;;;;;;13.50;10.03;;;17.40;99.90;;;;;;5151647;27;20517;-69
2021/08/23 01:35:04;;;;;;;13.87;11.33;;;17.40;99.90;;;;;;5130998;28;20404;-69
2021/08/23 01:37:31;;;;;;;22.93;13.03;;;17.50;99.90;;;;;;5130061;28;20879;-70
2021/08/23 01:39:57;;;;;;;13.83;10.20;;;17.40;99.90;;;;;;5110861;28;20837;-70
2021/08/23 01:42:23;;;;;;;14.47;10.53;;;17.40;99.90;;;;;;5110217;28;20884;-69
2021/08/23 01:44:49;;;;;;;13.77;10.30;;;17.40;99.90;;;;;;5109996;28;20423;-69
2021/08/23 01:47:15;;;;;;;13.93;10.77;;;17.40;99.90;;;;;;5110217;28;20431;-70
2021/08/23 01:49:41;;;;;;;14.30;11.00;;;17.50;99.90;;;;;;5110198;28;20165;-70
2021/08/23 01:52:09;;;;;;;15.93;12.00;;;17.50;99.90;;;;;;5109822;28;20284;-69
2021/08/23 01:54:35;;;;;;;15.33;10.77;;;17.50;99.90;;;;;;5110542;28;20923;-69
2021/08/23 01:57:01;;;;;;;16.27;11.43;;;17.50;99.90;;;;;;5110296;28;20502;-69
2021/08/23 01:59:26;;;;;;;11.07;8.77;;;17.50;99.90;;;;;;5109751;28;20515;-69
2021/08/23 02:01:52;;;;;;;13.37;9.10;;;17.50;99.90;;;;;;5109951;28;20527;-70
2021/08/23 02:04:17;;;;;;;12.20;9.67;;;17.50;99.90;;;;;;5109681;28;20611;-70
2021/08/23 02:06:43;;;;;;;12.20;9.60;;;17.50;99.90;;;;;;5109624;28;20169;-70
2021/08/23 02:09:09;;;;;;;11.53;9.07;;;17.50;99.90;;;;;;5110086;28;20159;-70
2021/08/23 02:11:34;;;;;;;12.97;10.17;;;17.50;99.90;;;;;;5110192;28;20190;-70
2021/08/23 02:14:00;;;;;;;13.63;9.33;;;17.50;99.90;;;;;;5129158;28;20570;-69
2021/08/23 02:16:26;;;;;;;13.73;9.47;;;17.50;99.90;;;;;;5128371;28;20531;-70
2021/08/23 02:18:51;;;;;;;15.00;10.20;;;17.50;99.90;;;;;;5109642;28;20159;-70
2021/08/23 02:21:19;;;;;;;12.77;10.20;;;17.40;99.90;;;;;;5109438;28;20166;-70
2021/08/23 02:23:46;;;;;;;13.60;9.07;;;17.40;99.90;;;;;;5109355;28;20207;-70
2021/08/23 02:26:12;;;;;;;11.97;10.00;;;17.40;99.90;;;;;;5109281;28;20394;-69
2021/08/23 02:28:37;;;;;;;10.93;9.37;;;17.40;99.90;;;;;;5109984;28;20432;-70
2021/08/23 02:31:03;;;;;;;12.47;9.53;;;17.30;99.90;;;;;;5109675;28;20597;-70
2021/08/23 02:33:29;;;;;;;12.27;10.97;;;17.30;99.90;;;;;;5109246;28;20163;-69
2021/08/23 02:35:55;;;;;;;11.57;9.10;;;17.30;99.90;;;;;;5108974;28;20424;-69
2021/08/23 02:38:20;;;;;;;13.83;10.40;;;17.30;99.90;;;;;;5109101;28;20160;-69
2021/08/23 02:40:46;;;;;;;10.50;8.90;;;17.30;99.90;;;;;;5108921;28;20190;-69
2021/08/23 02:43:11;;;;;;;12.83;9.53;;;17.30;99.90;;;;;;5099733;28;20160;-69
2021/08/23 02:45:37;;;;;;;10.90;9.50;;;17.30;99.90;;;;;;5095880;28;20161;-69
2021/08/23 02:48:03;;;;;;;14.50;11.00;;;17.30;99.90;;;;;;5096263;28;20211;-70
2021/08/23 02:50:28;;;;;;;13.53;9.70;;;17.30;99.90;;;;;;5095741;28;22523;-71
2021/08/23 02:52:54;;;;;;;12.63;9.53;;;17.30;99.90;;;;;;5095376;28;20170;-71
2021/08/23 02:55:19;;;;;;;11.60;9.07;;;17.30;99.90;;;;;;5095073;28;20329;-71
2021/08/23 02:57:45;;;;;;;16.17;10.40;;;17.30;99.90;;;;;;5095077;28;20240;-71
2021/08/23 03:00:11;;;;;;;14.10;9.27;;;17.30;99.90;;;;;;5095197;28;20184;-71
2021/08/23 03:02:36;;;;;;;13.73;11.70;;;17.40;99.90;;;;;;5095809;28;20178;-71
2021/08/23 03:05:03;;;;;;;14.87;12.10;;;17.40;99.90;;;;;;5095500;28;20495;-71
2021/08/23 03:07:28;;;;;;;15.57;11.53;;;17.40;99.90;;;;;;5077049;28;20156;-71
2021/08/23 03:09:55;;;;;;;16.77;11.50;;;17.40;99.90;;;;;;5094954;28;20489;-71
2021/08/23 03:12:21;;;;;;;14.90;11.00;;;17.40;99.90;;;;;;5094745;28;20233;-71
2021/08/23 03:14:46;;;;;;;14.20;11.43;;;17.40;99.90;;;;;;5094735;28;20402;-71
2021/08/23 03:17:12;;;;;;;14.80;12.17;;;17.40;99.90;;;;;;5094761;28;20589;-71
2021/08/23 03:19:38;;;;;;;15.63;12.57;;;17.40;99.90;;;;;;5095318;28;20160;-71
2021/08/23 03:22:03;;;;;;;14.77;12.53;;;17.40;99.90;;;;;;5095176;28;20291;-71
2021/08/23 03:24:29;;;;;;;14.83;12.10;;;17.40;99.90;;;;;;5094606;28;20176;-71
2021/08/23 03:26:55;;;;;;;16.03;12.10;;;17.40;99.90;;;;;;5094564;28;20176;-71
2021/08/23 03:29:20;;;;;;;14.13;11.40;;;17.40;99.90;;;;;;5094515;28;20247;-71
2021/08/23 03:31:46;;;;;;;17.93;13.80;;;17.40;99.90;;;;;;5094426;28;20468;-71
2021/08/23 03:34:13;;;;;;;17.07;14.97;;;17.30;99.90;;;;;;5094344;28;20160;-71
2021/08/23 03:36:40;;;;;;;17.40;13.73;;;17.30;99.90;;;;;;5095087;28;20155;-71
2021/08/23 03:39:07;;;;;;;18.57;13.93;;;17.30;99.90;;;;;;5095112;28;20837;-71
2021/08/23 03:41:33;;;;;;;24.80;15.33;;;17.30;99.90;;;;;;5094202;28;20394;-71
2021/08/23 03:43:59;;;;;;;15.63;13.13;;;17.30;99.90;;;;;;5094294;28;20407;-71
2021/08/23 03:46:24;;;;;;;19.10;15.17;;;17.20;99.90;;;;;;5094392;28;20389;-71
2021/08/23 03:48:50;;;;;;;16.20;14.07;;;17.20;99.90;;;;;;5094069;28;20622;-71
2021/08/23 03:51:16;;;;;;;17.70;13.30;;;17.10;99.90;;;;;;5094026;28;20184;-71
2021/08/23 03:53:41;;;;;;;16.87;14.10;;;17.10;99.90;;;;;;5094157;28;20167;-71
2021/08/23 03:56:07;;;;;;;16.07;13.30;;;17.00;99.90;;;;;;5094384;28;20410;-72
2021/08/23 03:58:32;;;;;;;17.80;13.17;;;17.00;99.90;;;;;;5093930;28;20244;-71
2021/08/23 04:00:58;;;;;;;20.33;14.40;;;17.00;99.90;;;;;;5094755;28;20156;-71
2021/08/23 04:03:24;;;;;;;17.20;13.43;;;17.00;99.90;;;;;;5093971;28;20164;-71
2021/08/23 04:05:50;;;;;;;17.10;13.60;;;16.90;99.90;;;;;;5093833;28;20386;-71
2021/08/23 04:08:15;;;;;;;15.40;12.00;;;16.90;99.90;;;;;;5093737;28;20201;-71
2021/08/23 04:10:41;;;;;;;17.70;13.87;;;16.90;99.90;;;;;;5094175;28;20187;-71
2021/08/23 04:13:06;;;;;;;18.73;14.23;;;16.90;99.90;;;;;;5094329;28;20251;-71
2021/08/23 04:15:32;;;;;;;19.23;13.93;;;16.90;99.90;;;;;;5094294;28;20152;-71
2021/08/23 04:17:59;;;;;;;19.10;14.37;;;16.90;99.90;;;;;;5093323;28;20548;-71
2021/08/23 04:20:27;;;;;;;17.37;14.67;;;16.90;99.90;;;;;;5093633;28;20171;-71
2021/08/23 04:22:53;;;;;;;18.50;14.00;;;16.90;99.90;;;;;;5093552;28;20866;-71
2021/08/23 04:25:18;;;;;;;20.03;14.67;;;16.90;99.90;;;;;;5093539;28;20407;-71
2021/08/23 04:27:44;;;;;;;18.73;13.30;;;16.90;99.90;;;;;;5102846;28;20171;-71
2021/08/23 04:30:10;;;;;;;17.20;14.27;;;16.90;99.90;;;;;;5104344;28;20175;-71
2021/08/23 04:32:35;;;;;;;20.43;14.90;;;16.90;99.90;;;;;;5113529;28;20197;-71
2021/08/23 04:35:01;;;;;;;20.67;15.80;;;17.00;99.90;;;;;;5113713;28;20483;-71
2021/08/23 04:37:26;;;;;;;17.37;14.10;;;17.00;99.90;;;;;;5113625;28;20158;-71
2021/08/23 04:39:52;;;;;;;16.87;12.97;;;17.00;99.90;;;;;;5113727;28;20158;-71
2021/08/23 04:42:17;;;;;;;15.47;12.77;;;17.00;99.90;;;;;;5113818;28;20231;-71
2021/08/23 04:44:44;;;;;;;15.90;12.33;;;17.10;99.90;;;;;;5111779;28;20195;-71
2021/08/23 04:47:11;;;;;;;14.57;12.73;;;17.10;99.90;;;;;;5093498;28;20172;-71
2021/08/23 04:49:36;;;;;;;14.43;12.10;;;17.10;99.90;;;;;;5095927;28;20478;-71
2021/08/23 04:52:02;;;;;;;14.77;11.87;;;17.10;99.90;;;;;;5092829;28;20994;-71
2021/08/23 04:54:28;;;;;;;19.80;12.53;;;17.10;99.90;;;;;;5092918;28;20163;-71
2021/08/23 04:56:53;;;;;;;17.50;12.00;;;17.20;99.90;;;;;;5092840;28;20164;-71
2021/08/23 04:59:19;;;;;;;14.50;12.20;;;17.10;99.90;;;;;;5093400;28;20187;-71
2021/08/23 05:01:45;;;;;;;16.80;12.77;;;17.20;99.90;;;;;;5093469;28;20190;-71
2021/08/23 05:04:11;;;;;;;17.67;12.60;;;17.20;99.90;;;;;;5093372;28;20671;-71
2021/08/23 05:06:36;;;;;;;15.47;12.17;;;17.20;99.90;;;;;;5094598;28;20180;-71
2021/08/23 05:09:03;;;;;;;13.87;12.23;;;17.20;99.90;;;;;;5096615;28;20433;-71
2021/08/23 05:11:29;;;;;;;14.30;12.63;;;17.20;99.90;;;;;;5099357;28;20557;-71
2021/08/23 05:13:55;;;;;;;16.70;12.90;;;17.20;99.90;;;;;;5100710;28;20430;-71
2021/08/23 05:16:20;;;;;;;16.57;12.60;;;17.20;99.90;;;;;;5108316;28;20457;-71
2021/08/23 05:18:46;;;;;;;19.10;14.90;;;17.30;99.90;;;;;;5108722;28;20180;-71
2021/08/23 05:21:11;;;;;;;17.50;13.10;;;17.30;99.90;;;;;;5099481;28;20184;-71
2021/08/23 05:23:37;;;;;;;16.77;13.60;;;17.30;99.90;;;;;;5097641;28;20234;-71
2021/08/23 05:26:06;;;;;;;18.00;13.50;;;17.30;99.90;;;;;;5102466;28;20200;-71
2021/08/23 05:28:32;;;;;;;18.87;14.77;;;17.30;99.90;;;;;;5100936;28;20598;-71
2021/08/23 05:30:57;;;;;;;19.30;14.20;;;17.20;99.90;;;;;;5096875;28;20465;-71
2021/08/23 05:33:23;;;;;;;19.40;14.67;;;17.20;99.90;;;;;;5100003;28;20184;-71
2021/08/23 05:35:48;;;;;;;17.07;13.07;;;17.20;99.90;;;;;;5101892;28;20255;-71
2021/08/23 05:38:14;;;;;;;17.37;13.30;;;17.20;99.90;;;;;;5102739;28;20182;-71
2021/08/23 05:40:40;;;;;;;21.00;15.17;;;17.20;99.90;;;;;;5095368;28;20178;-71
2021/08/23 05:43:05;;;;;;;22.20;15.93;;;17.20;99.90;;;;;;5099970;28;20277;-71
2021/08/23 05:45:31;;;;;;;15.70;13.40;;;17.10;99.90;;;;;;5090938;28;20498;-71
2021/08/23 05:47:57;;;;;;;19.27;14.53;;;17.10;99.90;;;;;;5100829;28;20273;-72
2021/08/23 05:50:23;;;;;;;20.63;15.10;;;17.10;99.90;;;;;;5112006;28;20166;-71
2021/08/23 05:52:48;;;;;;;23.07;15.87;;;17.10;99.90;;;;;;5100178;28;20487;-71
2021/08/23 05:55:14;;;;;;;19.93;14.40;;;17.10;99.90;;;;;;5103446;28;20184;-71
2021/08/23 05:57:40;;;;;;;33.57;16.10;;;17.10;99.90;;;;;;5093227;28;20172;-71
2021/08/23 06:00:06;;;;;;;20.27;14.60;;;17.20;99.90;;;;;;5103165;28;20223;-71
2021/08/23 06:02:32;;;;;;;22.33;15.60;;;17.20;99.90;;;;;;5100132;28;20181;-71
2021/08/23 06:04:58;;;;;;;21.10;15.40;;;17.20;99.90;;;;;;5097093;28;20482;-71
2021/08/23 06:07:23;;;;;;;22.57;14.97;;;17.30;99.90;;;;;;5103664;28;20161;-71
2021/08/23 06:09:49;;;;;;;18.80;14.50;;;17.30;99.90;;;;;;5102753;28;20182;-71
2021/08/23 06:12:15;;;;;;;20.87;14.00;;;17.40;99.90;;;;;;5102916;28;20204;-71
2021/08/23 06:14:41;;;;;;;21.70;15.03;;;17.40;99.90;;;;;;5098562;28;20652;-71
2021/08/23 06:17:07;;;;;;;19.37;14.87;;;17.40;99.90;;;;;;5107428;28;20176;-71
2021/08/23 06:19:33;;;;;;;25.13;15.00;;;17.50;99.90;;;;;;5113063;28;20409;-71
2021/08/23 06:21:59;;;;;;;20.43;13.60;;;17.50;99.90;;;;;;5115977;28;20462;-71
2021/08/23 06:24:24;;;;;;;17.60;12.10;;;17.60;99.90;;;;;;5102181;28;20189;-71
2021/08/23 06:26:50;;;;;;;21.30;13.73;;;17.60;99.90;;;;;;5096561;28;20185;-71
2021/08/23 06:29:15;;;;;;;18.30;12.37;;;17.70;99.90;;;;;;5112487;28;20228;-71
2021/08/23 06:31:41;;;;;;;17.57;13.37;;;17.80;99.90;;;;;;5100238;28;20269;-71
2021/08/23 06:34:08;;;;;;;17.10;12.03;;;17.70;99.90;;;;;;5112576;28;20164;-71
2021/08/23 06:36:35;;;;;;;15.77;12.00;;;17.80;99.90;;;;;;5103189;28;20207;-71
2021/08/23 06:39:01;;;;;;;15.60;12.20;;;17.80;99.90;;;;;;5094628;28;20418;-71
2021/08/23 06:41:28;;;;;;;14.63;11.87;;;17.80;99.90;;;;;;5095618;28;20402;-71
2021/08/23 06:43:54;;;;;;;17.40;13.40;;;17.80;99.90;;;;;;5099705;28;20462;-71
2021/08/23 06:46:20;;;;;;;14.90;10.90;;;17.80;99.90;;;;;;5105071;28;20991;-71
2021/08/23 06:48:45;;;;;;;18.07;13.27;;;17.80;99.90;;;;;;5096843;28;20495;-71
2021/08/23 06:51:12;;;;;;;19.70;12.30;;;17.70;99.90;;;;;;5097566;28;20213;-72
2021/08/23 06:53:38;;;;;;;18.57;13.50;;;17.80;99.90;;;;;;5097868;28;20175;-71
2021/08/23 06:56:04;;;;;;;21.20;14.30;;;17.80;99.90;;;;;;5097355;28;20408;-71
2021/08/23 06:58:30;;;;;;;22.63;16.00;;;17.80;99.90;;;;;;5099280;28;20426;-71
2021/08/23 07:00:56;;;;;;;20.37;15.53;;;17.80;99.90;;;;;;5097468;28;20422;-71
2021/08/23 07:03:21;;;;;;;20.50;14.00;;;17.90;99.90;;;;;;5102417;28;20183;-71
2021/08/23 07:05:47;;;;;;;22.50;15.47;;;17.90;99.90;;;;;;5101160;28;20179;-71
2021/08/23 07:08:14;;;;;;;23.93;16.10;;;17.90;99.90;;;;;;5101774;28;20171;-71
2021/08/23 07:10:40;;;;;;;21.63;14.13;;;18.00;99.90;;;;;;5101384;28;20202;-71
2021/08/23 07:13:05;;;;;;;26.33;17.20;;;17.90;99.90;;;;;;5097669;28;20420;-71
2021/08/23 07:15:31;;;;;;;23.03;16.90;;;17.90;99.90;;;;;;5099254;28;20484;-71
2021/08/23 07:17:56;;;;;;;23.17;16.53;;;17.90;99.90;;;;;;5101139;28;20181;-71
2021/08/23 07:20:22;;;;;;;19.50;14.90;;;17.90;99.90;;;;;;5102697;28;20184;-71
2021/08/23 07:22:47;;;;;;;20.87;14.00;;;17.90;99.90;;;;;;5096214;28;20215;-71
2021/08/23 07:25:13;;;;;;;20.03;14.90;;;18.00;99.90;;;;;;5100755;28;20168;-71
2021/08/23 07:27:39;;;;;;;23.50;15.27;;;18.00;99.90;;;;;;5105534;28;20767;-71
2021/08/23 07:30:05;;;;;;;21.17;15.43;;;18.00;99.90;;;;;;5101313;28;20198;-71
2021/08/23 07:32:32;;;;;;;21.37;15.60;;;18.00;99.90;;;;;;5102210;28;20536;-71
2021/08/23 07:34:57;;;;;;;16.97;13.43;;;18.00;99.90;;;;;;5099209;28;20425;-71
2021/08/23 07:37:23;;;;;;;21.33;14.33;;;18.00;99.90;;;;;;5103933;28;20457;-71
2021/08/23 07:39:48;;;;;;;21.07;11.93;;;18.00;99.90;;;;;;5102277;28;20634;-71
2021/08/23 07:42:14;;;;;;;17.00;13.33;;;18.00;99.90;;;;;;5094379;28;20173;-71
2021/08/23 07:44:41;;;;;;;14.97;10.80;;;18.10;99.90;;;;;;5097840;28;20437;-71
2021/08/23 07:47:07;;;;;;;13.73;11.07;;;18.10;99.90;;;;;;5091516;28;20427;-71
2021/08/23 07:49:33;;;;;;;13.80;10.33;;;18.00;99.90;;;;;;5096729;28;20465;-71
2021/08/23 07:51:59;;;;;;;21.90;14.20;;;18.10;99.90;;;;;;5099550;28;20460;-71
2021/08/23 07:54:25;;;;;;;17.87;13.17;;;18.10;99.90;;;;;;5100273;28;20523;-71
2021/08/23 07:56:51;;;;;;;14.93;10.90;;;18.10;99.90;;;;;;5109332;28;20187;-71
2021/08/23 07:59:16;;;;;;;15.00;12.00;;;18.10;99.90;;;;;;5080899;28;20275;-71
2021/08/23 08:01:42;;;;;;;13.77;9.93;;;18.20;99.90;;;;;;5081289;28;20175;-71
2021/08/23 08:04:08;;;;;;;11.70;8.83;;;18.20;99.90;;;;;;5085621;28;20177;-71
2021/08/23 08:06:33;;;;;;;11.20;7.83;;;18.20;99.90;;;;;;5078621;28;20213;-71
2021/08/23 08:08:59;;;;;;;10.93;7.23;;;18.20;99.90;;;;;;5082271;28;20249;-71
2021/08/23 08:11:24;;;;;;;8.87;7.07;;;18.20;99.90;;;;;;5081229;28;20199;-71
2021/08/23 08:13:50;;;;;;;7.60;6.30;;;18.20;99.90;;;;;;5083370;28;20185;-71
2021/08/23 08:16:15;;;;;;;7.10;5.97;;;18.20;99.90;;;;;;5082266;28;20177;-71
2021/08/23 08:18:41;;;;;;;7.27;5.63;;;18.20;99.90;;;;;;5081836;28;20250;-71
2021/08/23 08:21:08;;;;;;;6.30;5.57;;;18.10;99.90;;;;;;5091618;28;20265;-71
2021/08/23 08:23:33;;;;;;;5.67;4.80;;;18.10;99.90;;;;;;5092000;28;20661;-71
2021/08/23 08:25:59;;;;;;;5.80;4.47;;;18.00;99.90;;;;;;5091376;28;20527;-71
2021/08/23 08:28:24;;;;;;;5.80;4.00;;;18.00;99.90;;;;;;5086645;28;20181;-71
2021/08/23 08:30:50;;;;;;;5.20;4.63;;;17.90;99.90;;;;;;5079158;28;20208;-71
2021/08/23 08:33:16;;;;;;;4.80;4.00;;;17.80;99.90;;;;;;5084261;28;20179;-71
2021/08/23 08:35:42;;;;;;;5.53;4.53;;;17.90;99.90;;;;;;5091075;28;20187;-71
2021/08/23 08:38:08;;;;;;;5.03;4.53;;;17.90;99.90;;;;;;5079827;28;20168;-71
2021/08/23 08:40:34;;;;;;;9.03;6.50;;;17.90;99.90;;;;;;5078581;28;20408;-71
2021/08/23 08:43:00;;;;;;;10.87;9.23;;;18.00;99.90;;;;;;5079848;28;20422;-71
2021/08/23 08:45:27;;;;;;;12.23;10.17;;;17.90;99.90;;;;;;5081458;28;20898;-71
2021/08/23 08:47:54;;;;;;;17.70;11.40;;;17.80;99.90;;;;;;5087459;28;20179;-71
2021/08/23 08:50:22;;;;;;;17.60;13.80;;;17.70;99.90;;;;;;5082332;28;20464;-71
2021/08/23 08:52:48;;;;;;;16.33;12.50;;;17.70;99.90;;;;;;5080938;28;20496;-71
2021/08/23 08:55:15;;;;;;;17.03;13.03;;;17.70;99.90;;;;;;5081953;28;20399;-71
2021/08/23 08:57:41;;;;;;;16.03;12.20;;;17.60;99.90;;;;;;5078709;28;20224;-71
2021/08/23 09:00:08;;;;;;;16.17;12.60;;;17.60;99.90;;;;;;5073990;28;20434;-71
2021/08/23 09:02:35;;;;;;;17.23;14.30;;;17.60;99.90;;;;;;5073767;28;20206;-71
2021/08/23 09:05:05;;;;;;;21.47;13.30;;;17.50;99.90;;;;;;5081188;28;20406;-71
2021/08/23 09:07:38;;;;;;;15.30;12.80;;;17.50;99.90;;;;;;5083207;28;20390;-71
2021/08/23 09:10:22;;;;;;;17.70;13.70;;;17.50;99.90;;;;;;5082521;28;20402;-71
2021/08/23 09:13:00;;;;;;;19.23;12.87;;;17.60;99.90;;;;;;5075887;28;20446;-71
2021/08/23 09:15:26;;;;;;;15.57;12.30;;;17.70;99.90;;;;;;5081128;28;20469;-71
2021/08/23 09:18:02;;;;;;;17.27;13.90;;;17.70;99.90;;;;;;5082894;28;20489;-71
2021/08/23 09:20:27;;;;;;;16.87;12.90;;;17.70;99.90;;;;;;5081568;28;20179;-71
2021/08/23 09:22:53;;;;;;;21.87;13.83;;;17.80;99.90;;;;;;5081454;28;20532;-71
2021/08/23 09:25:24;;;;;;;17.70;13.80;;;17.80;99.90;;;;;;5080933;28;20270;-71
2021/08/23 09:28:00;;;;;;;17.10;13.67;;;17.80;99.90;;;;;;5078929;28;20195;-71
2021/08/23 09:30:26;;;;;;;18.77;13.47;;;17.90;99.90;;;;;;5075878;28;20409;-71
2021/08/23 09:32:52;;;;;;;20.37;15.07;;;18.00;99.90;;;;;;5078362;28;20766;-71
2021/08/23 09:35:35;;;;;;;19.27;13.73;;;18.10;99.90;;;;;;5081374;28;20180;-71
2021/08/23 09:38:02;;;;;;;15.60;12.60;;;18.10;99.90;;;;;;5080646;28;20418;-71
2021/08/23 09:40:31;;;;;;;16.93;12.30;;;18.10;99.90;;;;;;5077998;28;20835;-71
2021/08/23 09:43:21;;;;;;;14.10;11.73;;;18.00;99.90;;;;;;5082834;28;20402;-71
2021/08/23 09:45:48;;;;;;;14.73;11.97;;;18.00;99.90;;;;;;5091604;28;20764;-71
2021/08/23 09:48:15;;;;;;;14.83;12.47;;;17.90;99.90;;;;;;5074882;28;20791;-71
2021/08/23 09:50:48;;;;;;;16.10;12.57;;;17.90;99.90;;;;;;5088744;28;20421;-71
2021/08/23 09:53:17;;;;;;;17.30;13.33;;;18.00;99.90;;;;;;5083183;28;20408;-72
2021/08/23 09:55:46;;;;;;;16.20;11.90;;;18.00;99.90;;;;;;5084555;28;20415;-72
2021/08/23 09:58:12;;;;;;;18.80;13.67;;;18.10;99.90;;;;;;5082319;28;20468;-72
2021/08/23 10:00:40;;;;;;;18.60;12.37;;;18.20;99.90;;;;;;5082202;28;20417;-72
2021/08/23 10:03:13;;;;;;;17.07;13.67;;;18.20;99.90;;;;;;5085983;28;20409;-72
2021/08/23 10:05:42;;;;;;;18.10;12.10;;;18.30;99.90;;;;;;5086051;28;20904;-72
2021/08/23 10:08:07;;;;;;;19.70;13.50;;;18.30;99.90;;;;;;5083065;28;21109;-72
2021/08/23 10:10:34;;;;;;;20.70;14.93;;;18.30;99.90;;;;;;5081665;28;20433;-72
2021/08/23 10:13:00;;;;;;;21.73;15.17;;;18.30;99.90;;;;;;5084659;28;20175;-72
2021/08/23 10:15:26;;;;;;;22.90;14.40;;;18.30;99.90;;;;;;5084745;28;20403;-72
2021/08/23 10:17:53;;;;;;;18.87;14.17;;;18.30;99.90;;;;;;5086715;28;20413;-72
2021/08/23 10:20:18;;;;;;;22.53;14.33;;;18.40;99.90;;;;;;5085958;28;20409;-72
2021/08/23 10:22:44;;;;;;;22.53;14.43;;;18.50;99.90;;;;;;5083191;28;20877;-72
2021/08/23 10:25:10;;;;;;;18.33;14.67;;;18.60;99.90;;;;;;5084392;28;20617;-72
2021/08/23 10:27:40;;;;;;;20.20;15.23;;;18.70;99.90;;;;;;5085931;28;20170;-72
2021/08/23 10:30:19;;;;;;;16.70;12.80;;;18.70;99.90;;;;;;5083598;28;20440;-72
2021/08/23 10:32:45;;;;;;;18.93;15.43;;;18.80;99.90;;;;;;5082254;28;20479;-72
2021/08/23 10:35:26;;;;;;;21.00;16.80;;;18.90;99.90;;;;;;5084185;28;20406;-72
2021/08/23 10:37:54;;;;;;;22.27;13.37;;;18.90;99.90;;;;;;5080356;28;20198;-72
2021/08/23 10:40:25;;;;;;;19.27;14.63;;;18.90;99.90;;;;;;5085575;28;20475;-72
2021/08/23 10:42:51;;;;;;;16.37;13.93;;;19.00;99.90;;;;;;5083780;28;20504;-72
2021/08/23 10:45:18;;;;;;;16.17;13.33;;;19.20;99.90;;;;;;5075391;28;20536;-72
2021/08/23 10:47:45;;;;;;;18.17;14.23;;;19.40;99.90;;;;;;5084910;28;20188;-72
2021/08/23 10:50:20;;;;;;;17.40;13.50;;;19.60;99.90;;;;;;5082817;28;20434;-72
2021/08/23 10:52:48;;;;;;;16.40;11.70;;;19.80;99.90;;;;;;5085544;28;20444;-72
2021/08/23 10:55:24;;;;;;;14.30;11.93;;;20.00;99.90;;;;;;5083844;28;20417;-72
2021/08/23 10:58:04;;;;;;;15.80;11.90;;;20.10;99.90;;;;;;5087097;28;20922;-72
2021/08/23 11:00:45;;;;;;;15.53;12.47;;;20.20;99.90;;;;;;5089223;28;20516;-72
2021/08/23 11:03:13;;;;;;;15.73;12.80;;;20.10;99.90;;;;;;5075670;28;20418;-72
2021/08/23 11:05:39;;;;;;;14.97;13.40;;;20.10;99.90;;;;;;5084743;28;20402;-72
2021/08/23 11:08:09;;;;;;;15.20;12.30;;;20.10;99.90;;;;;;5079749;28;20421;-72
2021/08/23 11:10:38;;;;;;;16.27;14.07;;;20.20;99.90;;;;;;5087330;28;20997;-72
2021/08/23 11:13:19;;;;;;;16.10;13.80;;;20.10;99.90;;;;;;5084901;28;20399;-72
2021/08/23 11:15:45;;;;;;;16.50;13.13;;;20.20;99.90;;;;;;5082186;28;20410;-72
2021/08/23 11:21:01;;;;;;;13.30;11.40;;;20.40;99.90;;;;;;5089091;27;20524;-70
2021/08/23 11:23:27;;;;;;;15.07;11.10;;;20.60;99.90;;;;;;5077602;28;20421;-70
2021/08/23 11:25:57;;;;;;;14.87;12.80;;;20.60;99.90;;;;;;5078889;28;20625;-72
2021/08/23 11:28:27;;;;;;;14.87;11.90;;;20.50;99.90;;;;;;5080307;28;20390;-72
2021/08/23 11:30:54;;;;;;;13.40;11.60;;;20.40;99.90;;;;;;5069627;28;20446;-72
2021/08/23 11:36:03;;;;;;;13.67;10.50;;;20.30;99.90;;;;;;5049662;28;20541;-71
2021/08/23 11:38:32;;;;;;;17.40;14.20;;;20.30;99.90;;;;;;5052869;28;20406;-71
2021/08/23 11:40:58;;;;;;;14.90;12.63;;;20.40;99.90;;;;;;5061948;28;20498;-72
2021/08/23 11:43:28;;;;;;;15.83;11.93;;;20.40;99.90;;;;;;5049388;28;20506;-71
2021/08/23 11:45:56;;;;;;;13.70;11.00;;;20.60;99.90;;;;;;5049784;28;20233;-71
2021/08/23 11:48:21;;;;;;;13.83;12.30;;;20.70;99.90;;;;;;5047718;28;20757;-71
2021/08/23 11:50:47;;;;;;;15.77;11.23;;;20.80;99.90;;;;;;5047256;28;20416;-71
2021/08/23 11:53:14;;;;;;;14.00;12.43;;;20.90;99.90;;;;;;5045848;28;20226;-72
2021/08/23 11:55:44;;;;;;;13.07;11.77;;;20.90;99.90;;;;;;5053230;28;20192;-71
2021/08/23 11:58:12;;;;;;;13.17;11.87;;;20.80;99.90;;;;;;5048638;28;20415;-71
2021/08/23 12:00:39;;;;;;;14.87;11.83;;;20.80;99.90;;;;;;5056737;28;20423;-71
2021/08/23 12:03:09;;;;;;;14.40;11.77;;;20.80;99.90;;;;;;5059014;28;20433;-71
2021/08/23 12:05:39;;;;;;;13.17;10.87;;;20.80;99.90;;;;;;5068227;28;20403;-72
2021/08/23 12:08:06;;;;;;;14.30;11.63;;;20.90;99.90;;;;;;5061234;28;20433;-72
2021/08/23 12:10:35;;;;;;;13.97;11.50;;;20.90;99.90;;;;;;5058441;28;20427;-71
2021/08/23 12:13:12;;;;;;;13.30;11.23;;;21.00;99.90;;;;;;5050807;28;20569;-71
2021/08/23 12:18:34;;;;;;;15.00;13.00;;;21.30;99.90;;;;;;5058766;28;20534;-71
2021/08/23 12:21:26;;;;;;;14.90;13.17;;;21.40;99.90;;;;;;5063167;28;20403;-71
2021/08/23 12:31:51;;;;;;;14.33;12.83;;;21.30;99.90;;;;;;5045752;28;20527;-71
2021/08/23 12:34:20;;;;;;;13.10;11.70;;;21.20;99.90;;;;;;5042131;28;20437;-72
2021/08/23 12:36:47;;;;;;;12.77;11.50;;;21.20;99.90;;;;;;5044683;28;20417;-71
2021/08/23 12:39:13;;;;;;;13.63;12.27;;;21.30;99.90;;;;;;5042611;28;20410;-71
2021/08/23 12:41:41;;;;;;;13.40;11.57;;;21.30;99.90;;;;;;5043494;28;20426;-71
2021/08/23 12:44:07;;;;;;;13.80;11.87;;;21.30;99.90;;;;;;5043211;28;20412;-71
2021/08/23 12:46:33;;;;;;;16.53;12.50;;;21.20;99.90;;;;;;5035407;28;20425;-71
2021/08/23 12:48:59;;;;;;;17.00;13.30;;;21.20;99.90;;;;;;5035921;28;20981;-71
2021/08/23 12:51:24;;;;;;;13.37;11.37;;;21.10;99.90;;;;;;5031156;28;20198;-71